sensor_id;sensor_type;location;lat;lon;timestamp;temperature;humidity
30244;DHT22;64022;53.652;9.792;2023-05-16T00:29:41;24.20;43.10
30244;DHT22;64022;53.652;9.792;2023-05-16T00:32:14;24.20;43.40
30244;DHT22;64022;53.652;9.792;2023-05-16T00:34:43;24.20;43.30
30244;DHT22;64022;53.652;9.792;2023-05-16T00:54:22;24.20;43.20
30244;DHT22;64022;53.652;9.792;2023-05-16T00:56:50;24.20;43.50
30244;DHT22;64022;53.652;9.792;2023-05-16T00:59:16;24.20;43.50
30244;DHT22;64022;53.652;9.792;2023-05-16T01:01:45;24.20;43.50
30244;DHT22;64022;53.652;9.792;2023-05-16T01:04:11;24.20;43.60
30244;DHT22;64022;53.652;9.792;2023-05-16T01:06:37;24.20;43.60
30244;DHT22;64022;53.652;9.792;2023-05-16T01:09:03;24.20;43.60
30244;DHT22;64022;53.652;9.792;2023-05-16T01:11:55;24.20;44.20
30244;DHT22;64022;53.652;9.792;2023-05-16T01:14:45;24.20;43.50
30244;DHT22;64022;53.652;9.792;2023-05-16T01:17:20;24.30;43.60
30244;DHT22;64022;53.652;9.792;2023-05-16T01:20:20;24.20;43.70
30244;DHT22;64022;53.652;9.792;2023-05-16T01:22:51;24.30;43.50
30244;DHT22;64022;53.652;9.792;2023-05-16T01:28:06;24.20;43.60
30244;DHT22;64022;53.652;9.792;2023-05-16T01:30:37;24.20;43.80
30244;DHT22;64022;53.652;9.792;2023-05-16T01:33:03;24.30;43.80
30244;DHT22;64022;53.652;9.792;2023-05-16T01:35:29;24.20;43.80
30244;DHT22;64022;53.652;9.792;2023-05-16T01:38:25;24.20;43.80
30244;DHT22;64022;53.652;9.792;2023-05-16T01:41:26;24.20;43.80
30244;DHT22;64022;53.652;9.792;2023-05-16T01:43:52;24.30;44.50
30244;DHT22;64022;53.652;9.792;2023-05-16T01:46:25;24.20;43.90
30244;DHT22;64022;53.652;9.792;2023-05-16T01:48:59;24.30;44.00
30244;DHT22;64022;53.652;9.792;2023-05-16T01:51:31;24.20;44.00
30244;DHT22;64022;53.652;9.792;2023-05-16T01:54:01;24.20;44.00
30244;DHT22;64022;53.652;9.792;2023-05-16T01:56:30;24.20;44.00
30244;DHT22;64022;53.652;9.792;2023-05-16T01:58:57;24.20;44.10
30244;DHT22;64022;53.652;9.792;2023-05-16T02:01:23;24.30;44.10
30244;DHT22;64022;53.652;9.792;2023-05-16T02:03:49;24.30;44.20
30244;DHT22;64022;53.652;9.792;2023-05-16T02:06:15;24.30;44.20
30244;DHT22;64022;53.652;9.792;2023-05-16T02:08:41;24.20;44.20
30244;DHT22;64022;53.652;9.792;2023-05-16T02:11:06;24.30;44.20
30244;DHT22;64022;53.652;9.792;2023-05-16T02:13:32;24.30;44.20
30244;DHT22;64022;53.652;9.792;2023-05-16T02:15:58;24.30;44.20
30244;DHT22;64022;53.652;9.792;2023-05-16T02:18:23;24.20;44.20
30244;DHT22;64022;53.652;9.792;2023-05-16T02:20:49;24.30;44.30
30244;DHT22;64022;53.652;9.792;2023-05-16T02:23:15;24.30;44.30
30244;DHT22;64022;53.652;9.792;2023-05-16T02:25:41;24.30;44.30
30244;DHT22;64022;53.652;9.792;2023-05-16T02:28:06;24.30;44.40
30244;DHT22;64022;53.652;9.792;2023-05-16T02:30:32;24.30;44.40
30244;DHT22;64022;53.652;9.792;2023-05-16T02:32:57;24.20;44.40
30244;DHT22;64022;53.652;9.792;2023-05-16T02:35:23;24.30;44.40
30244;DHT22;64022;53.652;9.792;2023-05-16T02:37:48;24.30;44.50
30244;DHT22;64022;53.652;9.792;2023-05-16T02:40:14;24.20;44.50
30244;DHT22;64022;53.652;9.792;2023-05-16T02:42:40;24.20;44.50
30244;DHT22;64022;53.652;9.792;2023-05-16T02:45:05;24.30;44.50
30244;DHT22;64022;53.652;9.792;2023-05-16T02:47:31;24.30;44.50
30244;DHT22;64022;53.652;9.792;2023-05-16T02:49:56;24.20;44.50
30244;DHT22;64022;53.652;9.792;2023-05-16T02:52:22;24.30;44.50
30244;DHT22;64022;53.652;9.792;2023-05-16T02:54:47;24.20;44.50
30244;DHT22;64022;53.652;9.792;2023-05-16T02:57:13;24.30;44.60
30244;DHT22;64022;53.652;9.792;2023-05-16T02:59:39;24.30;44.60
30244;DHT22;64022;53.652;9.792;2023-05-16T03:02:04;24.30;44.60
30244;DHT22;64022;53.652;9.792;2023-05-16T03:04:30;24.30;44.60
30244;DHT22;64022;53.652;9.792;2023-05-16T03:06:56;24.30;44.60
30244;DHT22;64022;53.652;9.792;2023-05-16T03:09:22;24.30;44.60
30244;DHT22;64022;53.652;9.792;2023-05-16T03:11:47;24.20;45.10
30244;DHT22;64022;53.652;9.792;2023-05-16T03:14:13;24.30;44.60
30244;DHT22;64022;53.652;9.792;2023-05-16T03:16:38;24.30;44.60
30244;DHT22;64022;53.652;9.792;2023-05-16T03:19:06;24.20;44.60
30244;DHT22;64022;53.652;9.792;2023-05-16T03:21:31;24.30;44.60
30244;DHT22;64022;53.652;9.792;2023-05-16T03:23:57;24.20;44.60
30244;DHT22;64022;53.652;9.792;2023-05-16T03:26:23;24.20;43.40
30244;DHT22;64022;53.652;9.792;2023-05-16T03:28:49;24.20;41.20
30244;DHT22;64022;53.652;9.792;2023-05-16T03:31:15;23.90;40.10
30244;DHT22;64022;53.652;9.792;2023-05-16T03:33:41;23.70;39.50
30244;DHT22;64022;53.652;9.792;2023-05-16T03:36:07;23.50;38.70
30244;DHT22;64022;53.652;9.792;2023-05-16T03:38:33;23.30;38.70
30244;DHT22;64022;53.652;9.792;2023-05-16T03:40:58;23.20;39.60
30244;DHT22;64022;53.652;9.792;2023-05-16T03:43:24;23.10;40.30
30244;DHT22;64022;53.652;9.792;2023-05-16T03:45:49;23.20;40.80
30244;DHT22;64022;53.652;9.792;2023-05-16T03:48:15;23.20;41.10
30244;DHT22;64022;53.652;9.792;2023-05-16T03:50:40;23.20;41.40
30244;DHT22;64022;53.652;9.792;2023-05-16T03:53:06;23.30;41.60
30244;DHT22;64022;53.652;9.792;2023-05-16T03:55:33;23.40;41.80
30244;DHT22;64022;53.652;9.792;2023-05-16T03:57:59;23.40;41.40
30244;DHT22;64022;53.652;9.792;2023-05-16T04:00:25;23.40;42.00
30244;DHT22;64022;53.652;9.792;2023-05-16T04:02:51;23.50;42.10
30244;DHT22;64022;53.652;9.792;2023-05-16T04:05:16;23.50;42.10
30244;DHT22;64022;53.652;9.792;2023-05-16T04:07:42;23.50;42.20
30244;DHT22;64022;53.652;9.792;2023-05-16T04:10:08;23.50;42.20
30244;DHT22;64022;53.652;9.792;2023-05-16T04:12:34;23.60;42.30
30244;DHT22;64022;53.652;9.792;2023-05-16T04:15:00;23.50;42.40
30244;DHT22;64022;53.652;9.792;2023-05-16T04:17:26;23.60;42.40
30244;DHT22;64022;53.652;9.792;2023-05-16T04:19:51;23.60;42.50
30244;DHT22;64022;53.652;9.792;2023-05-16T04:22:17;23.60;42.50
30244;DHT22;64022;53.652;9.792;2023-05-16T04:24:42;23.70;42.60
30244;DHT22;64022;53.652;9.792;2023-05-16T04:27:08;23.60;42.60
30244;DHT22;64022;53.652;9.792;2023-05-16T04:29:34;23.70;42.70
30244;DHT22;64022;53.652;9.792;2023-05-16T04:32:00;23.70;42.70
30244;DHT22;64022;53.652;9.792;2023-05-16T04:34:26;23.70;42.80
30244;DHT22;64022;53.652;9.792;2023-05-16T04:36:53;23.70;42.80
30244;DHT22;64022;53.652;9.792;2023-05-16T04:39:18;23.70;42.80
30244;DHT22;64022;53.652;9.792;2023-05-16T04:41:44;23.70;42.80
30244;DHT22;64022;53.652;9.792;2023-05-16T04:44:09;23.70;42.90
30244;DHT22;64022;53.652;9.792;2023-05-16T04:46:35;23.80;43.00
30244;DHT22;64022;53.652;9.792;2023-05-16T04:49:01;23.80;43.00
30244;DHT22;64022;53.652;9.792;2023-05-16T04:51:27;23.80;43.00
30244;DHT22;64022;53.652;9.792;2023-05-16T04:53:52;23.80;43.00
30244;DHT22;64022;53.652;9.792;2023-05-16T04:56:18;23.80;43.00
30244;DHT22;64022;53.652;9.792;2023-05-16T04:58:44;23.80;43.10
30244;DHT22;64022;53.652;9.792;2023-05-16T05:01:10;23.90;43.10
30244;DHT22;64022;53.652;9.792;2023-05-16T05:03:36;23.90;43.10
30244;DHT22;64022;53.652;9.792;2023-05-16T05:06:02;23.90;43.20
30244;DHT22;64022;53.652;9.792;2023-05-16T05:08:27;23.90;43.20
30244;DHT22;64022;53.652;9.792;2023-05-16T05:10:54;23.90;43.20
30244;DHT22;64022;53.652;9.792;2023-05-16T05:13:20;23.90;43.20
30244;DHT22;64022;53.652;9.792;2023-05-16T05:15:46;23.90;43.20
30244;DHT22;64022;53.652;9.792;2023-05-16T05:18:11;23.90;43.20
30244;DHT22;64022;53.652;9.792;2023-05-16T05:20:37;23.90;43.20
30244;DHT22;64022;53.652;9.792;2023-05-16T05:23:02;24.00;43.30
30244;DHT22;64022;53.652;9.792;2023-05-16T05:25:28;23.90;43.20
30244;DHT22;64022;53.652;9.792;2023-05-16T05:27:54;23.90;43.20
30244;DHT22;64022;53.652;9.792;2023-05-16T05:30:19;24.00;43.30
30244;DHT22;64022;53.652;9.792;2023-05-16T05:32:45;24.00;43.30
30244;DHT22;64022;53.652;9.792;2023-05-16T05:35:10;24.00;43.40
30244;DHT22;64022;53.652;9.792;2023-05-16T05:37:36;24.00;43.30
30244;DHT22;64022;53.652;9.792;2023-05-16T05:40:01;24.00;43.30
30244;DHT22;64022;53.652;9.792;2023-05-16T05:42:28;24.00;43.30
30244;DHT22;64022;53.652;9.792;2023-05-16T05:44:54;24.00;43.40
30244;DHT22;64022;53.652;9.792;2023-05-16T05:47:19;24.00;43.30
30244;DHT22;64022;53.652;9.792;2023-05-16T05:49:46;24.00;43.30
30244;DHT22;64022;53.652;9.792;2023-05-16T05:52:12;24.00;43.40
30244;DHT22;64022;53.652;9.792;2023-05-16T05:54:37;24.00;43.40
30244;DHT22;64022;53.652;9.792;2023-05-16T05:57:03;24.10;43.50
30244;DHT22;64022;53.652;9.792;2023-05-16T05:59:28;24.10;43.40
30244;DHT22;64022;53.652;9.792;2023-05-16T06:01:54;24.00;43.40
30244;DHT22;64022;53.652;9.792;2023-05-16T06:04:20;24.00;43.40
30244;DHT22;64022;53.652;9.792;2023-05-16T06:06:46;24.10;43.50
30244;DHT22;64022;53.652;9.792;2023-05-16T06:09:11;24.10;43.50
30244;DHT22;64022;53.652;9.792;2023-05-16T06:11:40;24.00;43.40
30244;DHT22;64022;53.652;9.792;2023-05-16T06:14:06;24.10;43.50
30244;DHT22;64022;53.652;9.792;2023-05-16T06:16:32;24.10;43.50
30244;DHT22;64022;53.652;9.792;2023-05-16T06:18:58;24.10;43.50
30244;DHT22;64022;53.652;9.792;2023-05-16T06:21:23;24.10;43.50
30244;DHT22;64022;53.652;9.792;2023-05-16T06:23:49;24.10;43.50
30244;DHT22;64022;53.652;9.792;2023-05-16T06:26:15;24.10;43.50
30244;DHT22;64022;53.652;9.792;2023-05-16T06:28:40;24.10;43.50
30244;DHT22;64022;53.652;9.792;2023-05-16T06:31:06;24.10;43.50
30244;DHT22;64022;53.652;9.792;2023-05-16T06:33:31;24.10;43.60
30244;DHT22;64022;53.652;9.792;2023-05-16T06:35:57;24.10;43.60
30244;DHT22;64022;53.652;9.792;2023-05-16T06:38:23;24.10;43.60
30244;DHT22;64022;53.652;9.792;2023-05-16T06:40:48;24.10;43.60
30244;DHT22;64022;53.652;9.792;2023-05-16T06:43:14;24.10;43.60
30244;DHT22;64022;53.652;9.792;2023-05-16T06:45:39;24.10;43.60
30244;DHT22;64022;53.652;9.792;2023-05-16T06:48:06;24.10;43.60
30244;DHT22;64022;53.652;9.792;2023-05-16T06:50:32;24.20;43.70
30244;DHT22;64022;53.652;9.792;2023-05-16T06:52:59;24.20;43.70
30244;DHT22;64022;53.652;9.792;2023-05-16T06:55:25;24.10;43.60
30244;DHT22;64022;53.652;9.792;2023-05-16T06:57:51;24.20;42.80
30244;DHT22;64022;53.652;9.792;2023-05-16T07:00:17;24.10;41.00
30244;DHT22;64022;53.652;9.792;2023-05-16T07:02:42;24.00;40.40
30244;DHT22;64022;53.652;9.792;2023-05-16T07:05:08;23.90;39.50
30244;DHT22;64022;53.652;9.792;2023-05-16T07:07:34;23.90;39.00
30244;DHT22;64022;53.652;9.792;2023-05-16T07:10:00;23.80;38.20
30244;DHT22;64022;53.652;9.792;2023-05-16T07:12:25;23.70;37.60
30244;DHT22;64022;53.652;9.792;2023-05-16T07:14:51;23.60;36.90
30244;DHT22;64022;53.652;9.792;2023-05-16T07:17:16;23.60;36.40
30244;DHT22;64022;53.652;9.792;2023-05-16T07:19:42;23.50;35.90
30244;DHT22;64022;53.652;9.792;2023-05-16T07:22:08;23.40;35.70
30244;DHT22;64022;53.652;9.792;2023-05-16T07:24:33;23.30;35.50
30244;DHT22;64022;53.652;9.792;2023-05-16T07:27:00;23.20;35.10
30244;DHT22;64022;53.652;9.792;2023-05-16T07:29:26;23.30;35.00
30244;DHT22;64022;53.652;9.792;2023-05-16T07:31:51;23.20;34.30
30244;DHT22;64022;53.652;9.792;2023-05-16T07:34:17;23.20;34.10
30244;DHT22;64022;53.652;9.792;2023-05-16T07:36:42;23.20;34.10
30244;DHT22;64022;53.652;9.792;2023-05-16T07:39:08;23.20;33.80
30244;DHT22;64022;53.652;9.792;2023-05-16T07:41:33;23.20;33.40
30244;DHT22;64022;53.652;9.792;2023-05-16T07:43:59;23.20;32.90
30244;DHT22;64022;53.652;9.792;2023-05-16T07:46:25;23.10;32.70
30244;DHT22;64022;53.652;9.792;2023-05-16T07:48:50;23.10;32.50
30244;DHT22;64022;53.652;9.792;2023-05-16T07:51:16;23.10;32.50
30244;DHT22;64022;53.652;9.792;2023-05-16T07:53:41;23.10;32.40
30244;DHT22;64022;53.652;9.792;2023-05-16T07:56:07;23.10;32.00
30244;DHT22;64022;53.652;9.792;2023-05-16T07:58:33;23.10;32.10
30244;DHT22;64022;53.652;9.792;2023-05-16T08:00:59;23.10;32.10
30244;DHT22;64022;53.652;9.792;2023-05-16T08:03:25;23.10;31.70
30244;DHT22;64022;53.652;9.792;2023-05-16T08:05:50;23.10;31.70
30244;DHT22;64022;53.652;9.792;2023-05-16T08:08:16;23.10;31.30
30244;DHT22;64022;53.652;9.792;2023-05-16T08:10:42;23.10;30.90
30244;DHT22;64022;53.652;9.792;2023-05-16T08:13:07;23.00;30.50
30244;DHT22;64022;53.652;9.792;2023-05-16T08:15:34;22.90;30.40
30244;DHT22;64022;53.652;9.792;2023-05-16T08:18:00;22.90;30.40
30244;DHT22;64022;53.652;9.792;2023-05-16T08:20:26;22.80;30.40
30244;DHT22;64022;53.652;9.792;2023-05-16T08:22:51;22.80;30.60
30244;DHT22;64022;53.652;9.792;2023-05-16T08:25:17;22.80;30.50
30244;DHT22;64022;53.652;9.792;2023-05-16T08:27:48;22.80;30.30
30244;DHT22;64022;53.652;9.792;2023-05-16T08:30:14;22.80;30.30
30244;DHT22;64022;53.652;9.792;2023-05-16T08:32:39;22.90;30.00
30244;DHT22;64022;53.652;9.792;2023-05-16T08:35:05;22.90;29.90
30244;DHT22;64022;53.652;9.792;2023-05-16T08:37:31;22.90;29.90
30244;DHT22;64022;53.652;9.792;2023-05-16T08:39:58;22.90;29.70
30244;DHT22;64022;53.652;9.792;2023-05-16T08:42:23;22.90;29.70
30244;DHT22;64022;53.652;9.792;2023-05-16T08:44:49;23.00;29.80
30244;DHT22;64022;53.652;9.792;2023-05-16T08:47:19;23.00;29.70
30244;DHT22;64022;53.652;9.792;2023-05-16T08:49:51;23.00;29.80
30244;DHT22;64022;53.652;9.792;2023-05-16T08:52:18;23.00;29.70
30244;DHT22;64022;53.652;9.792;2023-05-16T08:54:45;23.00;29.30
30244;DHT22;64022;53.652;9.792;2023-05-16T08:57:12;23.00;29.20
30244;DHT22;64022;53.652;9.792;2023-05-16T08:59:39;23.00;29.10
30244;DHT22;64022;53.652;9.792;2023-05-16T09:02:05;22.90;28.80
30244;DHT22;64022;53.652;9.792;2023-05-16T09:04:31;22.80;28.80
30244;DHT22;64022;53.652;9.792;2023-05-16T09:06:57;22.80;28.90
30244;DHT22;64022;53.652;9.792;2023-05-16T09:09:23;22.80;28.90
30244;DHT22;64022;53.652;9.792;2023-05-16T09:11:49;22.80;28.90
30244;DHT22;64022;53.652;9.792;2023-05-16T09:14:14;22.80;29.00
30244;DHT22;64022;53.652;9.792;2023-05-16T09:16:40;22.80;29.30
30244;DHT22;64022;53.652;9.792;2023-05-16T09:19:05;22.80;29.50
30244;DHT22;64022;53.652;9.792;2023-05-16T09:21:34;22.90;29.80
30244;DHT22;64022;53.652;9.792;2023-05-16T09:26:30;23.00;30.20
30244;DHT22;64022;53.652;9.792;2023-05-16T09:28:56;23.00;30.40
30244;DHT22;64022;53.652;9.792;2023-05-16T09:31:26;23.10;30.70
30244;DHT22;64022;53.652;9.792;2023-05-16T09:33:57;23.10;30.70
30244;DHT22;64022;53.652;9.792;2023-05-16T09:36:24;23.10;30.70
30244;DHT22;64022;53.652;9.792;2023-05-16T09:38:50;23.20;31.00
30244;DHT22;64022;53.652;9.792;2023-05-16T09:41:16;23.20;31.10
30244;DHT22;64022;53.652;9.792;2023-05-16T09:43:43;23.20;31.20
30244;DHT22;64022;53.652;9.792;2023-05-16T09:46:13;23.20;31.30
30244;DHT22;64022;53.652;9.792;2023-05-16T09:48:46;23.30;31.50
30244;DHT22;64022;53.652;9.792;2023-05-16T09:51:12;23.30;31.50
30244;DHT22;64022;53.652;9.792;2023-05-16T09:53:39;23.30;31.70
30244;DHT22;64022;53.652;9.792;2023-05-16T09:58:33;23.40;32.00
30244;DHT22;64022;53.652;9.792;2023-05-16T10:01:00;23.40;32.10
30244;DHT22;64022;53.652;9.792;2023-05-16T10:03:27;23.40;32.20
30244;DHT22;64022;53.652;9.792;2023-05-16T10:05:53;23.40;32.30
30244;DHT22;64022;53.652;9.792;2023-05-16T10:08:24;23.50;32.40
30244;DHT22;64022;53.652;9.792;2023-05-16T10:10:51;23.40;32.40
30244;DHT22;64022;53.652;9.792;2023-05-16T10:13:23;23.50;32.60
30244;DHT22;64022;53.652;9.792;2023-05-16T10:15:49;23.50;32.70
30244;DHT22;64022;53.652;9.792;2023-05-16T10:18:20;23.50;32.80
30244;DHT22;64022;53.652;9.792;2023-05-16T10:20:48;23.50;32.90
30244;DHT22;64022;53.652;9.792;2023-05-16T10:23:18;23.50;33.00
30244;DHT22;64022;53.652;9.792;2023-05-16T10:25:45;23.50;33.10
30244;DHT22;64022;53.652;9.792;2023-05-16T10:28:11;23.50;33.20
30244;DHT22;64022;53.652;9.792;2023-05-16T10:30:40;23.50;32.60
30244;DHT22;64022;53.652;9.792;2023-05-16T10:33:06;23.60;33.40
30244;DHT22;64022;53.652;9.792;2023-05-16T10:35:33;23.60;33.50
30244;DHT22;64022;53.652;9.792;2023-05-16T10:37:59;23.60;33.60
30244;DHT22;64022;53.652;9.792;2023-05-16T10:40:26;23.60;33.70
30244;DHT22;64022;53.652;9.792;2023-05-16T10:45:21;23.60;33.80
30244;DHT22;64022;53.652;9.792;2023-05-16T10:47:54;23.60;33.90
30244;DHT22;64022;53.652;9.792;2023-05-16T10:52:56;23.70;33.90
30244;DHT22;64022;53.652;9.792;2023-05-16T10:55:35;23.60;34.10
30244;DHT22;64022;53.652;9.792;2023-05-16T10:58:02;23.70;34.20
30244;DHT22;64022;53.652;9.792;2023-05-16T11:00:27;23.70;34.30
30244;DHT22;64022;53.652;9.792;2023-05-16T11:03:04;23.60;33.70
30244;DHT22;64022;53.652;9.792;2023-05-16T11:05:30;23.60;34.30
30244;DHT22;64022;53.652;9.792;2023-05-16T11:08:03;23.70;34.50
30244;DHT22;64022;53.652;9.792;2023-05-16T11:10:29;23.70;34.50
30244;DHT22;64022;53.652;9.792;2023-05-16T11:13:01;23.70;34.70
30244;DHT22;64022;53.652;9.792;2023-05-16T11:15:30;23.70;34.70
30244;DHT22;64022;53.652;9.792;2023-05-16T11:18:08;23.70;34.80
30244;DHT22;64022;53.652;9.792;2023-05-16T11:20:34;23.70;34.70
30244;DHT22;64022;53.652;9.792;2023-05-16T11:25:42;23.70;34.80
30244;DHT22;64022;53.652;9.792;2023-05-16T11:28:11;23.70;35.10
30244;DHT22;64022;53.652;9.792;2023-05-16T11:30:53;23.70;35.20
30244;DHT22;64022;53.652;9.792;2023-05-16T11:33:22;23.80;35.30
30244;DHT22;64022;53.652;9.792;2023-05-16T11:36:04;23.80;35.30
30244;DHT22;64022;53.652;9.792;2023-05-16T11:38:31;23.80;35.10
30244;DHT22;64022;53.652;9.792;2023-05-16T11:41:02;23.80;35.40
30244;DHT22;64022;53.652;9.792;2023-05-16T11:43:28;23.80;35.40
30244;DHT22;64022;53.652;9.792;2023-05-16T11:45:54;23.80;35.50
30244;DHT22;64022;53.652;9.792;2023-05-16T11:48:23;23.80;35.50
30244;DHT22;64022;53.652;9.792;2023-05-16T11:50:49;23.80;35.60
30244;DHT22;64022;53.652;9.792;2023-05-16T11:53:14;23.80;36.20
30244;DHT22;64022;53.652;9.792;2023-05-16T11:55:40;23.80;35.70
30244;DHT22;64022;53.652;9.792;2023-05-16T11:58:06;23.90;35.80
30244;DHT22;64022;53.652;9.792;2023-05-16T12:00:32;23.90;35.80
30244;DHT22;64022;53.652;9.792;2023-05-16T12:03:02;23.90;35.90
30244;DHT22;64022;53.652;9.792;2023-05-16T12:05:32;23.90;35.90
30244;DHT22;64022;53.652;9.792;2023-05-16T12:07:58;23.90;36.00
30244;DHT22;64022;53.652;9.792;2023-05-16T12:10:24;23.90;36.00
30244;DHT22;64022;53.652;9.792;2023-05-16T12:12:50;23.90;36.10
30244;DHT22;64022;53.652;9.792;2023-05-16T12:15:17;23.90;36.10
30244;DHT22;64022;53.652;9.792;2023-05-16T12:17:43;23.90;36.20
30244;DHT22;64022;53.652;9.792;2023-05-16T12:20:10;23.90;36.20
30244;DHT22;64022;53.652;9.792;2023-05-16T12:22:45;23.90;36.20
30244;DHT22;64022;53.652;9.792;2023-05-16T12:27:59;23.90;36.20
30244;DHT22;64022;53.652;9.792;2023-05-16T12:30:26;23.90;36.40
30244;DHT22;64022;53.652;9.792;2023-05-16T12:35:20;23.90;36.00
30244;DHT22;64022;53.652;9.792;2023-05-16T12:37:48;24.00;36.60
30244;DHT22;64022;53.652;9.792;2023-05-16T12:40:14;24.00;36.60
30244;DHT22;64022;53.652;9.792;2023-05-16T12:42:42;24.00;36.70
30244;DHT22;64022;53.652;9.792;2023-05-16T12:45:18;24.00;36.70
30244;DHT22;64022;53.652;9.792;2023-05-16T12:47:44;24.00;36.60
30244;DHT22;64022;53.652;9.792;2023-05-16T12:50:14;24.00;36.70
30244;DHT22;64022;53.652;9.792;2023-05-16T12:52:58;24.00;36.80
30244;DHT22;64022;53.652;9.792;2023-05-16T12:55:24;24.00;36.70
30244;DHT22;64022;53.652;9.792;2023-05-16T12:57:50;24.00;36.90
30244;DHT22;64022;53.652;9.792;2023-05-16T13:00:18;24.00;36.90
30244;DHT22;64022;53.652;9.792;2023-05-16T13:02:45;24.00;36.90
30244;DHT22;64022;53.652;9.792;2023-05-16T13:05:11;24.00;37.00
30244;DHT22;64022;53.652;9.792;2023-05-16T13:07:37;24.00;37.00
30244;DHT22;64022;53.652;9.792;2023-05-16T13:10:08;24.10;37.10
30244;DHT22;64022;53.652;9.792;2023-05-16T13:12:35;24.10;37.10
30244;DHT22;64022;53.652;9.792;2023-05-16T13:15:01;24.10;37.20
30244;DHT22;64022;53.652;9.792;2023-05-16T13:17:27;24.10;37.20
30244;DHT22;64022;53.652;9.792;2023-05-16T13:19:54;24.10;37.20
30244;DHT22;64022;53.652;9.792;2023-05-16T13:22:20;24.10;37.20
30244;DHT22;64022;53.652;9.792;2023-05-16T13:24:45;24.10;37.30
30244;DHT22;64022;53.652;9.792;2023-05-16T13:27:14;24.10;37.30
30244;DHT22;64022;53.652;9.792;2023-05-16T13:29:40;24.10;37.40
30244;DHT22;64022;53.652;9.792;2023-05-16T13:32:06;24.10;37.40
30244;DHT22;64022;53.652;9.792;2023-05-16T13:34:32;24.10;37.40
30244;DHT22;64022;53.652;9.792;2023-05-16T13:36:58;24.10;37.50
30244;DHT22;64022;53.652;9.792;2023-05-16T13:39:23;24.10;37.60
30244;DHT22;64022;53.652;9.792;2023-05-16T13:41:50;24.10;37.60
30244;DHT22;64022;53.652;9.792;2023-05-16T13:44:15;24.10;37.60
30244;DHT22;64022;53.652;9.792;2023-05-16T13:46:41;24.10;37.60
30244;DHT22;64022;53.652;9.792;2023-05-16T13:49:07;24.10;37.70
30244;DHT22;64022;53.652;9.792;2023-05-16T13:51:32;24.20;37.80
30244;DHT22;64022;53.652;9.792;2023-05-16T13:53:58;24.20;37.80
30244;DHT22;64022;53.652;9.792;2023-05-16T13:56:24;24.20;37.80
30244;DHT22;64022;53.652;9.792;2023-05-16T13:58:50;24.20;37.90
30244;DHT22;64022;53.652;9.792;2023-05-16T14:01:16;24.20;37.90
30244;DHT22;64022;53.652;9.792;2023-05-16T14:03:41;24.20;37.90
30244;DHT22;64022;53.652;9.792;2023-05-16T14:06:07;24.20;38.00
30244;DHT22;64022;53.652;9.792;2023-05-16T14:08:33;24.20;38.00
30244;DHT22;64022;53.652;9.792;2023-05-16T14:10:59;24.20;38.00
30244;DHT22;64022;53.652;9.792;2023-05-16T14:13:24;24.20;38.10
30244;DHT22;64022;53.652;9.792;2023-05-16T14:15:49;24.20;38.10
30244;DHT22;64022;53.652;9.792;2023-05-16T14:18:15;24.20;38.10
30244;DHT22;64022;53.652;9.792;2023-05-16T14:20:41;24.20;38.20
30244;DHT22;64022;53.652;9.792;2023-05-16T14:23:07;24.20;38.20
30244;DHT22;64022;53.652;9.792;2023-05-16T14:25:32;24.20;38.20
30244;DHT22;64022;53.652;9.792;2023-05-16T14:27:58;24.20;38.30
30244;DHT22;64022;53.652;9.792;2023-05-16T14:30:24;24.20;38.30
30244;DHT22;64022;53.652;9.792;2023-05-16T14:32:50;24.20;38.30
30244;DHT22;64022;53.652;9.792;2023-05-16T14:35:15;24.20;38.40
30244;DHT22;64022;53.652;9.792;2023-05-16T14:37:41;24.20;38.40
30244;DHT22;64022;53.652;9.792;2023-05-16T14:40:07;24.30;38.40
30244;DHT22;64022;53.652;9.792;2023-05-16T14:42:33;24.30;38.50
30244;DHT22;64022;53.652;9.792;2023-05-16T14:44:59;24.20;37.40
30244;DHT22;64022;53.652;9.792;2023-05-16T14:47:25;24.20;35.80
30244;DHT22;64022;53.652;9.792;2023-05-16T14:49:51;24.00;34.40
30244;DHT22;64022;53.652;9.792;2023-05-16T14:52:18;23.90;33.80
30244;DHT22;64022;53.652;9.792;2023-05-16T14:54:44;23.70;33.00
30244;DHT22;64022;53.652;9.792;2023-05-16T14:57:09;23.50;32.50
30244;DHT22;64022;53.652;9.792;2023-05-16T14:59:35;23.30;32.20
30244;DHT22;64022;53.652;9.792;2023-05-16T15:02:01;23.10;32.00
30244;DHT22;64022;53.652;9.792;2023-05-16T15:04:26;23.00;31.90
30244;DHT22;64022;53.652;9.792;2023-05-16T15:06:53;22.90;31.70
30244;DHT22;64022;53.652;9.792;2023-05-16T15:09:18;22.80;31.60
30244;DHT22;64022;53.652;9.792;2023-05-16T15:11:44;22.80;31.70
30244;DHT22;64022;53.652;9.792;2023-05-16T15:14:10;22.70;31.50
30244;DHT22;64022;53.652;9.792;2023-05-16T15:16:36;22.60;31.20
30244;DHT22;64022;53.652;9.792;2023-05-16T15:19:01;22.50;30.90
30244;DHT22;64022;53.652;9.792;2023-05-16T15:21:27;22.50;31.00
30244;DHT22;64022;53.652;9.792;2023-05-16T15:23:53;22.40;31.00
30244;DHT22;64022;53.652;9.792;2023-05-16T15:26:19;22.40;30.90
30244;DHT22;64022;53.652;9.792;2023-05-16T15:28:47;22.30;31.30
30244;DHT22;64022;53.652;9.792;2023-05-16T15:31:12;22.30;31.40
30244;DHT22;64022;53.652;9.792;2023-05-16T15:33:38;22.20;31.20
30244;DHT22;64022;53.652;9.792;2023-05-16T15:36:04;22.10;31.20
30244;DHT22;64022;53.652;9.792;2023-05-16T15:38:30;22.00;31.10
30244;DHT22;64022;53.652;9.792;2023-05-16T15:40:55;22.00;31.40
30244;DHT22;64022;53.652;9.792;2023-05-16T15:43:21;21.90;31.30
30244;DHT22;64022;53.652;9.792;2023-05-16T15:45:47;21.90;31.90
30244;DHT22;64022;53.652;9.792;2023-05-16T15:48:13;22.00;32.30
30244;DHT22;64022;53.652;9.792;2023-05-16T15:50:38;22.00;32.70
30244;DHT22;64022;53.652;9.792;2023-05-16T15:53:04;22.10;32.90
30244;DHT22;64022;53.652;9.792;2023-05-16T15:55:29;22.10;33.00
30244;DHT22;64022;53.652;9.792;2023-05-16T15:57:56;22.20;33.10
30244;DHT22;64022;53.652;9.792;2023-05-16T16:00:23;22.30;33.10
30244;DHT22;64022;53.652;9.792;2023-05-16T16:02:49;22.30;33.10
30244;DHT22;64022;53.652;9.792;2023-05-16T16:05:14;22.30;33.10
30244;DHT22;64022;53.652;9.792;2023-05-16T16:07:40;22.40;33.20
30244;DHT22;64022;53.652;9.792;2023-05-16T16:10:06;22.40;33.30
30244;DHT22;64022;53.652;9.792;2023-05-16T16:12:32;22.50;33.40
30244;DHT22;64022;53.652;9.792;2023-05-16T16:14:57;22.50;33.40
30244;DHT22;64022;53.652;9.792;2023-05-16T16:17:23;22.50;33.30
30244;DHT22;64022;53.652;9.792;2023-05-16T16:19:49;22.50;33.30
30244;DHT22;64022;53.652;9.792;2023-05-16T16:22:14;22.50;33.40
30244;DHT22;64022;53.652;9.792;2023-05-16T16:24:41;22.60;33.30
30244;DHT22;64022;53.652;9.792;2023-05-16T16:27:06;22.60;33.20
30244;DHT22;64022;53.652;9.792;2023-05-16T16:29:32;22.60;33.20
30244;DHT22;64022;53.652;9.792;2023-05-16T16:31:58;22.60;33.10
30244;DHT22;64022;53.652;9.792;2023-05-16T16:34:25;22.70;33.10